sensor_id;sensor_type;location;lat;lon;timestamp;pressure;altitude;pressure_sealevel;temperature;humidity
43770;BME280;6597;52.218;9.882;2023-09-19T00:02:21;99816.88;;;14.63;100.00
43770;BME280;6597;52.218;9.882;2023-09-19T00:04:48;99823.53;;;14.69;100.00
43770;BME280;6597;52.218;9.882;2023-09-19T00:07:15;99811.91;;;14.72;100.00
43770;BME280;6597;52.218;9.882;2023-09-19T00:09:42;99815.41;;;14.72;100.00
43770;BME280;6597;52.218;9.882;2023-09-19T00:12:09;99815.00;;;14.78;100.00
43770;BME280;6597;52.218;9.882;2023-09-19T00:14:38;99825.16;;;14.84;100.00
43770;BME280;6597;52.218;9.882;2023-09-19T00:17:05;99829.25;;;14.88;100.00
43770;BME280;6597;52.218;9.882;2023-09-19T00:19:34;99837.84;;;14.92;100.00
43770;BME280;6597;52.218;9.882;2023-09-19T00:22:01;99843.00;;;14.93;100.00
43770;BME280;6597;52.218;9.882;2023-09-19T00:24:28;99844.63;;;14.96;100.00
43770;BME280;6597;52.218;9.882;2023-09-19T00:26:56;99849.91;;;14.96;100.00
43770;BME280;6597;52.218;9.882;2023-09-19T00:29:25;99851.78;;;14.94;100.00
43770;BME280;6597;52.218;9.882;2023-09-19T00:31:55;99849.13;;;14.94;100.00
43770;BME280;6597;52.218;9.882;2023-09-19T00:34:21;99857.91;;;14.94;100.00
43770;BME280;6597;52.218;9.882;2023-09-19T00:36:51;99854.53;;;14.92;100.00
43770;BME280;6597;52.218;9.882;2023-09-19T00:39:19;99834.22;;;14.93;100.00
43770;BME280;6597;52.218;9.882;2023-09-19T00:41:47;99836.88;;;14.93;100.00
43770;BME280;6597;52.218;9.882;2023-09-19T00:44:14;99851.59;;;14.97;100.00
43770;BME280;6597;52.218;9.882;2023-09-19T00:46:41;99840.19;;;14.97;100.00
43770;BME280;6597;52.218;9.882;2023-09-19T00:49:08;99843.56;;;14.99;100.00
43770;BME280;6597;52.218;9.882;2023-09-19T00:51:36;99840.72;;;15.02;100.00
43770;BME280;6597;52.218;9.882;2023-09-19T00:54:05;99851.19;;;15.03;100.00
43770;BME280;6597;52.218;9.882;2023-09-19T00:56:31;99848.34;;;15.06;100.00
43770;BME280;6597;52.218;9.882;2023-09-19T00:58:58;99852.78;;;15.06;100.00
43770;BME280;6597;52.218;9.882;2023-09-19T01:01:25;99849.06;;;15.08;100.00
43770;BME280;6597;52.218;9.882;2023-09-19T01:03:51;99850.56;;;15.12;100.00
43770;BME280;6597;52.218;9.882;2023-09-19T01:06:18;99846.97;;;15.13;100.00
43770;BME280;6597;52.218;9.882;2023-09-19T01:08:46;99852.25;;;15.13;100.00
43770;BME280;6597;52.218;9.882;2023-09-19T01:11:18;99856.47;;;15.16;100.00
43770;BME280;6597;52.218;9.882;2023-09-19T01:13:54;99869.69;;;15.16;100.00
43770;BME280;6597;52.218;9.882;2023-09-19T01:16:32;99868.09;;;15.13;100.00
43770;BME280;6597;52.218;9.882;2023-09-19T01:19:09;99872.44;;;15.14;100.00
43770;BME280;6597;52.218;9.882;2023-09-19T01:21:47;99868.94;;;15.14;100.00
43770;BME280;6597;52.218;9.882;2023-09-19T01:24:42;99873.28;;;15.15;100.00
43770;BME280;6597;52.218;9.882;2023-09-19T01:27:53;99874.97;;;15.16;100.00
43770;BME280;6597;52.218;9.882;2023-09-19T01:30:31;99874.03;;;15.17;100.00
43770;BME280;6597;52.218;9.882;2023-09-19T01:32:59;99870.44;;;15.18;100.00
43770;BME280;6597;52.218;9.882;2023-09-19T01:35:26;99879.31;;;15.17;100.00
43770;BME280;6597;52.218;9.882;2023-09-19T01:37:52;99882.91;;;15.16;100.00
43770;BME280;6597;52.218;9.882;2023-09-19T01:40:21;99889.03;;;15.16;100.00
43770;BME280;6597;52.218;9.882;2023-09-19T01:42:57;99894.13;;;15.19;100.00
43770;BME280;6597;52.218;9.882;2023-09-19T01:45:35;99896.75;;;15.19;100.00
43770;BME280;6597;52.218;9.882;2023-09-19T01:48:13;99896.66;;;15.21;100.00
43770;BME280;6597;52.218;9.882;2023-09-19T01:50:49;99897.28;;;15.24;100.00
43770;BME280;6597;52.218;9.882;2023-09-19T01:53:22;99901.44;;;15.29;100.00
43770;BME280;6597;52.218;9.882;2023-09-19T01:55:51;99901.97;;;15.34;100.00
43770;BME280;6597;52.218;9.882;2023-09-19T01:58:21;99902.50;;;15.39;100.00
43770;BME280;6597;52.218;9.882;2023-09-19T02:00:56;99904.72;;;15.45;100.00
43770;BME280;6597;52.218;9.882;2023-09-19T02:03:24;99908.09;;;15.47;100.00
43770;BME280;6597;52.218;9.882;2023-09-19T02:05:54;99895.19;;;15.42;100.00
43770;BME280;6597;52.218;9.882;2023-09-19T02:08:22;99906.09;;;15.50;100.00
43770;BME280;6597;52.218;9.882;2023-09-19T02:10:51;99903.66;;;15.47;100.00
43770;BME280;6597;52.218;9.882;2023-09-19T02:13:19;99907.91;;;15.50;100.00
43770;BME280;6597;52.218;9.882;2023-09-19T02:15:47;99915.72;;;15.51;100.00
43770;BME280;6597;52.218;9.882;2023-09-19T02:18:14;99919.09;;;15.53;100.00
43770;BME280;6597;52.218;9.882;2023-09-19T02:20:42;99925.13;;;15.55;100.00
43770;BME280;6597;52.218;9.882;2023-09-19T02:23:10;99929.47;;;15.56;100.00
43770;BME280;6597;52.218;9.882;2023-09-19T02:25:36;99930.31;;;15.57;100.00
43770;BME280;6597;52.218;9.882;2023-09-19T02:28:04;99925.03;;;15.57;100.00
43770;BME280;6597;52.218;9.882;2023-09-19T02:30:31;99925.13;;;15.55;100.00
43770;BME280;6597;52.218;9.882;2023-09-19T02:32:58;99939.22;;;15.56;100.00
43770;BME280;6597;52.218;9.882;2023-09-19T02:35:28;99936.47;;;15.57;100.00
43770;BME280;6597;52.218;9.882;2023-09-19T02:37:58;99931.88;;;15.61;100.00
43770;BME280;6597;52.218;9.882;2023-09-19T02:40:25;99935.13;;;15.65;100.00
43770;BME280;6597;52.218;9.882;2023-09-19T02:42:54;99923.59;;;15.66;100.00
43770;BME280;6597;52.218;9.882;2023-09-19T02:45:22;99926.34;;;15.64;100.00
43770;BME280;6597;52.218;9.882;2023-09-19T02:47:49;99938.63;;;15.65;100.00
43770;BME280;6597;52.218;9.882;2023-09-19T02:50:16;99929.97;;;15.63;100.00
43770;BME280;6597;52.218;9.882;2023-09-19T02:52:46;99925.03;;;15.57;100.00
43770;BME280;6597;52.218;9.882;2023-09-19T02:55:15;99921.84;;;15.52;100.00
43770;BME280;6597;52.218;9.882;2023-09-19T02:57:45;99930.75;;;15.51;100.00
43770;BME280;6597;52.218;9.882;2023-09-19T03:00:13;99917.72;;;15.48;100.00
43770;BME280;6597;52.218;9.882;2023-09-19T03:02:40;99917.94;;;15.45;100.00
43770;BME280;6597;52.218;9.882;2023-09-19T03:05:07;99911.19;;;15.41;100.00
43770;BME280;6597;52.218;9.882;2023-09-19T03:07:37;99924.09;;;15.45;100.00
43770;BME280;6597;52.218;9.882;2023-09-19T03:10:06;99929.47;;;15.44;100.00
43770;BME280;6597;52.218;9.882;2023-09-19T03:12:34;99933.72;;;15.46;100.00
43770;BME280;6597;52.218;9.882;2023-09-19T03:15:00;99935.50;;;15.46;100.00
43770;BME280;6597;52.218;9.882;2023-09-19T03:17:28;99940.06;;;15.44;100.00
43770;BME280;6597;52.218;9.882;2023-09-19T03:19:54;99944.59;;;15.42;100.00
43770;BME280;6597;52.218;9.882;2023-09-19T03:22:22;99937.72;;;15.39;100.00
43770;BME280;6597;52.218;9.882;2023-09-19T03:24:50;99941.31;;;15.38;100.00
43770;BME280;6597;52.218;9.882;2023-09-19T03:27:19;99945.03;;;15.36;100.00
43770;BME280;6597;52.218;9.882;2023-09-19T03:29:46;99945.34;;;15.31;100.00
43770;BME280;6597;52.218;9.882;2023-09-19T03:32:13;99948.84;;;15.32;100.00
43770;BME280;6597;52.218;9.882;2023-09-19T03:34:40;99948.84;;;15.32;100.00
43770;BME280;6597;52.218;9.882;2023-09-19T03:37:09;99948.00;;;15.31;100.00
43770;BME280;6597;52.218;9.882;2023-09-19T03:39:36;99943.66;;;15.30;100.00
43770;BME280;6597;52.218;9.882;2023-09-19T03:42:04;99952.72;;;15.26;100.00
43770;BME280;6597;52.218;9.882;2023-09-19T03:44:34;99959.78;;;15.25;100.00
43770;BME280;6597;52.218;9.882;2023-09-19T03:47:01;99955.66;;;15.21;100.00
43770;BME280;6597;52.218;9.882;2023-09-19T03:49:27;99960.09;;;15.21;100.00
43770;BME280;6597;52.218;9.882;2023-09-19T03:51:56;99970.25;;;15.14;100.00
43770;BME280;6597;52.218;9.882;2023-09-19T03:54:23;99973.22;;;15.10;100.00
43770;BME280;6597;52.218;9.882;2023-09-19T03:56:49;99977.75;;;15.08;100.00
43770;BME280;6597;52.218;9.882;2023-09-19T03:59:15;99986.72;;;15.05;100.00
43770;BME280;6597;52.218;9.882;2023-09-19T04:01:45;99992.13;;;15.04;100.00
43770;BME280;6597;52.218;9.882;2023-09-19T04:04:12;99994.13;;;15.00;100.00
43770;BME280;6597;52.218;9.882;2023-09-19T04:06:39;100004.97;;;14.95;100.00
43770;BME280;6597;52.218;9.882;2023-09-19T04:09:06;100005.91;;;14.94;100.00
43770;BME280;6597;52.218;9.882;2023-09-19T04:11:33;100017.44;;;14.93;100.00
43770;BME280;6597;52.218;9.882;2023-09-19T04:14:03;100013.09;;;14.92;100.00
43770;BME280;6597;52.218;9.882;2023-09-19T04:16:29;100017.44;;;14.93;100.00
43770;BME280;6597;52.218;9.882;2023-09-19T04:18:57;100009.59;;;14.92;100.00
43770;BME280;6597;52.218;9.882;2023-09-19T04:21:24;100013.28;;;14.89;100.00
43770;BME280;6597;52.218;9.882;2023-09-19T04:23:50;100010.84;;;14.86;100.00
43770;BME280;6597;52.218;9.882;2023-09-19T04:26:17;100021.31;;;14.88;100.00
43770;BME280;6597;52.218;9.882;2023-09-19T04:28:43;100016.88;;;14.88;100.00
43770;BME280;6597;52.218;9.882;2023-09-19T04:31:11;100017.94;;;14.86;100.00
43770;BME280;6597;52.218;9.882;2023-09-19T04:33:39;100021.41;;;14.86;100.00
43770;BME280;6597;52.218;9.882;2023-09-19T04:36:07;100017.19;;;14.84;100.00
43770;BME280;6597;52.218;9.882;2023-09-19T04:38:35;100017.28;;;14.82;100.00
43770;BME280;6597;52.218;9.882;2023-09-19T04:41:02;100025.31;;;14.81;100.00
43770;BME280;6597;52.218;9.882;2023-09-19T04:43:29;100028.06;;;14.79;100.00
43770;BME280;6597;52.218;9.882;2023-09-19T04:45:55;100027.31;;;14.77;100.00
43770;BME280;6597;52.218;9.882;2023-09-19T04:48:22;100022.03;;;14.77;100.00
43770;BME280;6597;52.218;9.882;2023-09-19T04:50:50;100030.91;;;14.76;100.00
43770;BME280;6597;52.218;9.882;2023-09-19T04:53:19;100030.03;;;14.76;100.00
43770;BME280;6597;52.218;9.882;2023-09-19T04:55:50;100031.09;;;14.73;100.00
43770;BME280;6597;52.218;9.882;2023-09-19T04:58:16;100042.59;;;14.72;100.00
43770;BME280;6597;52.218;9.882;2023-09-19T05:00:43;100046.28;;;14.70;100.00
43770;BME280;6597;52.218;9.882;2023-09-19T05:03:10;100043.75;;;14.68;100.00
43770;BME280;6597;52.218;9.882;2023-09-19T05:05:36;100054.22;;;14.70;100.00
43770;BME280;6597;52.218;9.882;2023-09-19T05:08:04;100054.31;;;14.68;100.00
43770;BME280;6597;52.218;9.882;2023-09-19T05:10:32;100055.25;;;14.67;100.00
43770;BME280;6597;52.218;9.882;2023-09-19T05:13:00;100061.38;;;14.68;100.00
43770;BME280;6597;52.218;9.882;2023-09-19T05:15:27;100067.63;;;14.67;100.00
43770;BME280;6597;52.218;9.882;2023-09-19T05:17:53;100067.72;;;14.65;100.00
43770;BME280;6597;52.218;9.882;2023-09-19T05:20:21;100061.75;;;14.61;100.00
43770;BME280;6597;52.218;9.882;2023-09-19T05:22:58;100079.41;;;14.61;100.00
43770;BME280;6597;52.218;9.882;2023-09-19T05:25:27;100067.03;;;14.61;100.00
43770;BME280;6597;52.218;9.882;2023-09-19T05:27:56;100068.72;;;14.62;100.00
43770;BME280;6597;52.218;9.882;2023-09-19T05:30:24;100081.69;;;14.67;100.00
43770;BME280;6597;52.218;9.882;2023-09-19T05:32:52;100086.75;;;14.70;100.00
43770;BME280;6597;52.218;9.882;2023-09-19T05:35:19;100083.28;;;14.70;100.00
43770;BME280;6597;52.218;9.882;2023-09-19T05:37:47;100094.78;;;14.69;100.00
43770;BME280;6597;52.218;9.882;2023-09-19T05:40:16;100098.56;;;14.65;100.00
43770;BME280;6597;52.218;9.882;2023-09-19T05:42:43;100094.28;;;14.62;100.00
43770;BME280;6597;52.218;9.882;2023-09-19T05:45:12;100088.94;;;14.63;98.77
43770;BME280;6597;52.218;9.882;2023-09-19T05:47:38;100094.28;;;14.62;97.33
43770;BME280;6597;52.218;9.882;2023-09-19T05:50:09;100095.84;;;14.66;97.98
43770;BME280;6597;52.218;9.882;2023-09-19T05:52:35;100104.69;;;14.65;96.47
43770;BME280;6597;52.218;9.882;2023-09-19T05:55:03;100103.91;;;14.63;96.63
43770;BME280;6597;52.218;9.882;2023-09-19T05:57:30;100114.41;;;14.65;96.88
43770;BME280;6597;52.218;9.882;2023-09-19T05:59:57;100115.28;;;14.65;97.29
43770;BME280;6597;52.218;9.882;2023-09-19T06:02:25;100125.84;;;14.65;97.96
43770;BME280;6597;52.218;9.882;2023-09-19T06:04:54;100117.81;;;14.67;97.93
43770;BME280;6597;52.218;9.882;2023-09-19T06:07:20;100134.97;;;14.74;96.21
43770;BME280;6597;52.218;9.882;2023-09-19T06:09:47;100135.25;;;14.83;96.00
43770;BME280;6597;52.218;9.882;2023-09-19T06:12:14;100141.47;;;14.97;95.68
43770;BME280;6597;52.218;9.882;2023-09-19T06:14:42;100140.13;;;15.04;95.89
43770;BME280;6597;52.218;9.882;2023-09-19T06:17:09;100145.03;;;15.10;94.97
43770;BME280;6597;52.218;9.882;2023-09-19T06:19:37;100137.84;;;15.12;93.88
43770;BME280;6597;52.218;9.882;2023-09-19T06:22:04;100151.91;;;15.12;93.95
43770;BME280;6597;52.218;9.882;2023-09-19T06:24:30;100145.38;;;15.18;94.67
43770;BME280;6597;52.218;9.882;2023-09-19T06:26:57;100144.97;;;15.24;94.24
43770;BME280;6597;52.218;9.882;2023-09-19T06:29:26;100151.88;;;15.26;93.16
43770;BME280;6597;52.218;9.882;2023-09-19T06:31:52;100149.06;;;15.30;91.77
43770;BME280;6597;52.218;9.882;2023-09-19T06:34:19;100153.41;;;15.31;92.66
43770;BME280;6597;52.218;9.882;2023-09-19T06:36:47;100148.97;;;15.31;92.31
43770;BME280;6597;52.218;9.882;2023-09-19T06:39:13;100149.50;;;15.36;92.76
43770;BME280;6597;52.218;9.882;2023-09-19T06:41:40;100153.44;;;15.43;91.18
43770;BME280;6597;52.218;9.882;2023-09-19T06:44:09;100142.47;;;15.49;91.86
43770;BME280;6597;52.218;9.882;2023-09-19T06:46:36;100143.31;;;15.50;91.74
43770;BME280;6597;52.218;9.882;2023-09-19T06:49:04;100140.56;;;15.51;89.76
43770;BME280;6597;52.218;9.882;2023-09-19T06:51:32;100135.81;;;15.56;91.33
43770;BME280;6597;52.218;9.882;2023-09-19T06:54:01;100135.66;;;15.60;90.98
43770;BME280;6597;52.218;9.882;2023-09-19T06:56:27;100140.56;;;15.66;90.37
43770;BME280;6597;52.218;9.882;2023-09-19T06:58:54;100137.59;;;15.70;88.79
43770;BME280;6597;52.218;9.882;2023-09-19T07:01:20;100142.59;;;15.75;89.11
43770;BME280;6597;52.218;9.882;2023-09-19T07:03:47;100143.03;;;15.81;88.21
43770;BME280;6597;52.218;9.882;2023-09-19T07:06:14;100147.41;;;15.95;87.32
43770;BME280;6597;52.218;9.882;2023-09-19T07:08:40;100151.25;;;16.16;87.66
43770;BME280;6597;52.218;9.882;2023-09-19T07:11:08;100168.97;;;16.41;84.86
43770;BME280;6597;52.218;9.882;2023-09-19T07:13:36;100173.03;;;16.72;84.38
43770;BME280;6597;52.218;9.882;2023-09-19T07:16:03;100176.19;;;17.03;83.07
43770;BME280;6597;52.218;9.882;2023-09-19T07:18:30;100169.88;;;17.29;80.78
43770;BME280;6597;52.218;9.882;2023-09-19T07:20:57;100165.75;;;17.49;78.43
43770;BME280;6597;52.218;9.882;2023-09-19T07:23:26;100174.22;;;17.67;76.81
43770;BME280;6597;52.218;9.882;2023-09-19T07:25:56;100163.91;;;17.86;74.77
43770;BME280;6597;52.218;9.882;2023-09-19T07:28:25;100162.19;;;18.09;75.24
43770;BME280;6597;52.218;9.882;2023-09-19T07:30:52;100169.25;;;18.21;71.91
43770;BME280;6597;52.218;9.882;2023-09-19T07:33:19;100179.78;;;18.34;70.16
43770;BME280;6597;52.218;9.882;2023-09-19T07:35:46;100171.09;;;18.32;70.09
43770;BME280;6597;52.218;9.882;2023-09-19T07:38:13;100191.72;;;18.28;70.02
43770;BME280;6597;52.218;9.882;2023-09-19T07:40:40;100185.41;;;18.18;69.78
43770;BME280;6597;52.218;9.882;2023-09-19T07:43:06;100194.31;;;18.17;70.74
43770;BME280;6597;52.218;9.882;2023-09-19T07:45:35;100182.59;;;18.09;69.91
43770;BME280;6597;52.218;9.882;2023-09-19T07:48:02;100188.66;;;17.87;67.50
43770;BME280;6597;52.218;9.882;2023-09-19T07:50:33;100197.47;;;17.87;69.75
43770;BME280;6597;52.218;9.882;2023-09-19T07:53:02;100193.19;;;17.97;71.11
43770;BME280;6597;52.218;9.882;2023-09-19T07:55:30;100201.66;;;18.02;70.28
43770;BME280;6597;52.218;9.882;2023-09-19T07:57:59;100195.47;;;17.91;69.74
43770;BME280;6597;52.218;9.882;2023-09-19T08:00:25;100206.47;;;17.73;69.97
43770;BME280;6597;52.218;9.882;2023-09-19T08:02:53;100207.44;;;17.60;71.02
43770;BME280;6597;52.218;9.882;2023-09-19T08:05:20;100201.53;;;17.43;70.79
43770;BME280;6597;52.218;9.882;2023-09-19T08:07:47;100209.66;;;17.29;71.36
43770;BME280;6597;52.218;9.882;2023-09-19T08:10:15;100207.00;;;17.29;72.27
43770;BME280;6597;52.218;9.882;2023-09-19T08:12:45;100201.28;;;17.23;72.22
43770;BME280;6597;52.218;9.882;2023-09-19T08:15:13;100195.88;;;17.24;72.38
43770;BME280;6597;52.218;9.882;2023-09-19T08:17:40;100201.72;;;17.29;71.67
43770;BME280;6597;52.218;9.882;2023-09-19T08:20:08;100209.31;;;17.34;71.94
43770;BME280;6597;52.218;9.882;2023-09-19T08:22:43;100207.19;;;17.39;72.06
43770;BME280;6597;52.218;9.882;2023-09-19T08:25:11;100193.25;;;17.48;72.86
43770;BME280;6597;52.218;9.882;2023-09-19T08:27:38;100193.22;;;17.61;70.38
43770;BME280;6597;52.218;9.882;2023-09-19T08:30:05;100202.16;;;17.84;69.99
43770;BME280;6597;52.218;9.882;2023-09-19T08:32:32;100199.25;;;18.11;69.47
43770;BME280;6597;52.218;9.882;2023-09-19T08:34:59;100198.97;;;18.26;68.56
43770;BME280;6597;52.218;9.882;2023-09-19T08:37:27;100216.41;;;18.53;67.63
43770;BME280;6597;52.218;9.882;2023-09-19T08:39:54;100211.28;;;18.74;66.02
43770;BME280;6597;52.218;9.882;2023-09-19T08:42:20;100209.38;;;18.98;64.46
43770;BME280;6597;52.218;9.882;2023-09-19T08:44:50;100210.34;;;18.97;63.74
43770;BME280;6597;52.218;9.882;2023-09-19T08:47:21;100206.47;;;19.01;64.01
43770;BME280;6597;52.218;9.882;2023-09-19T08:49:57;100217.13;;;19.01;64.22
43770;BME280;6597;52.218;9.882;2023-09-19T08:52:32;100204.78;;;19.00;65.42
43770;BME280;6597;52.218;9.882;2023-09-19T08:55:04;100201.28;;;19.11;64.37
43770;BME280;6597;52.218;9.882;2023-09-19T08:57:36;100207.78;;;19.18;63.56
43770;BME280;6597;52.218;9.882;2023-09-19T09:00:07;100207.09;;;19.27;62.71
43770;BME280;6597;52.218;9.882;2023-09-19T09:02:38;100219.88;;;19.33;64.83
43770;BME280;6597;52.218;9.882;2023-09-19T09:05:07;100217.34;;;19.32;61.74
43770;BME280;6597;52.218;9.882;2023-09-19T09:07:37;100214.22;;;19.15;63.21
43770;BME280;6597;52.218;9.882;2023-09-19T09:10:04;100200.66;;;18.85;62.47
43770;BME280;6597;52.218;9.882;2023-09-19T09:12:32;100212.47;;;18.58;62.64
43770;BME280;6597;52.218;9.882;2023-09-19T09:15:02;100218.19;;;18.41;66.10
43770;BME280;6597;52.218;9.882;2023-09-19T09:17:29;100224.22;;;18.32;66.47
43770;BME280;6597;52.218;9.882;2023-09-19T09:19:56;100221.06;;;18.27;66.52
43770;BME280;6597;52.218;9.882;2023-09-19T09:22:24;100228.34;;;18.36;68.33
43770;BME280;6597;52.218;9.882;2023-09-19T09:24:55;100221.09;;;18.38;67.13
43770;BME280;6597;52.218;9.882;2023-09-19T09:27:24;100219.06;;;18.42;65.84
43770;BME280;6597;52.218;9.882;2023-09-19T09:29:52;100216.28;;;18.43;66.59
43770;BME280;6597;52.218;9.882;2023-09-19T09:32:21;100216.19;;;18.56;65.99
43770;BME280;6597;52.218;9.882;2023-09-19T09:34:50;100208.94;;;18.58;64.96
43770;BME280;6597;52.218;9.882;2023-09-19T09:37:17;100206.09;;;18.72;64.83
43770;BME280;6597;52.218;9.882;2023-09-19T09:39:52;100210.56;;;18.83;65.04
43770;BME280;6597;52.218;9.882;2023-09-19T09:42:32;100221.69;;;18.77;62.62
43770;BME280;6597;52.218;9.882;2023-09-19T09:45:14;100226.16;;;18.76;64.69
43770;BME280;6597;52.218;9.882;2023-09-19T09:47:42;100223.38;;;18.67;64.11
43770;BME280;6597;52.218;9.882;2023-09-19T09:50:23;100210.19;;;18.65;64.62
43770;BME280;6597;52.218;9.882;2023-09-19T09:52:55;100223.75;;;18.73;63.28
43770;BME280;6597;52.218;9.882;2023-09-19T09:55:26;100223.50;;;18.76;65.63
43770;BME280;6597;52.218;9.882;2023-09-19T09:58:16;100231.22;;;18.68;63.92
43770;BME280;6597;52.218;9.882;2023-09-19T10:00:52;100234.25;;;18.75;65.18
43770;BME280;6597;52.218;9.882;2023-09-19T10:03:33;100232.81;;;18.82;64.34
43770;BME280;6597;52.218;9.882;2023-09-19T10:06:06;100228.72;;;19.11;65.54
43770;BME280;6597;52.218;9.882;2023-09-19T10:09:01;100227.63;;;19.36;62.99
43770;BME280;6597;52.218;9.882;2023-09-19T10:11:38;100229.16;;;19.50;63.03
43770;BME280;6597;52.218;9.882;2023-09-19T10:14:10;100226.63;;;19.48;62.90
43770;BME280;6597;52.218;9.882;2023-09-19T10:16:40;100227.72;;;19.46;62.66
43770;BME280;6597;52.218;9.882;2023-09-19T10:19:09;100229.59;;;19.56;63.72
43770;BME280;6597;52.218;9.882;2023-09-19T10:21:37;100225.91;;;19.69;62.98
43770;BME280;6597;52.218;9.882;2023-09-19T10:24:07;100223.97;;;19.71;62.80
43770;BME280;6597;52.218;9.882;2023-09-19T10:26:36;100223.50;;;19.66;64.43
43770;BME280;6597;52.218;9.882;2023-09-19T10:29:03;100221.06;;;19.74;64.14
43770;BME280;6597;52.218;9.882;2023-09-19T10:31:35;100221.25;;;19.82;62.40
43770;BME280;6597;52.218;9.882;2023-09-19T10:34:05;100225.63;;;19.83;63.31
43770;BME280;6597;52.218;9.882;2023-09-19T10:36:36;100220.59;;;19.69;61.45
43770;BME280;6597;52.218;9.882;2023-09-19T10:39:05;100223.81;;;19.83;62.54
43770;BME280;6597;52.218;9.882;2023-09-19T10:41:34;100222.88;;;20.16;62.95
43770;BME280;6597;52.218;9.882;2023-09-19T10:44:03;100224.94;;;20.34;59.26
43770;BME280;6597;52.218;9.882;2023-09-19T10:46:31;100220.97;;;20.28;58.92
43770;BME280;6597;52.218;9.882;2023-09-19T10:49:00;100216.03;;;20.24;59.20
43770;BME280;6597;52.218;9.882;2023-09-19T10:51:29;100226.19;;;20.30;59.99
43770;BME280;6597;52.218;9.882;2023-09-19T10:54:01;100220.00;;;20.29;58.69
43770;BME280;6597;52.218;9.882;2023-09-19T10:56:33;100222.28;;;20.34;59.23
43770;BME280;6597;52.218;9.882;2023-09-19T10:59:06;100217.41;;;20.39;58.77
43770;BME280;6597;52.218;9.882;2023-09-19T11:01:44;100218.81;;;20.54;60.77
43770;BME280;6597;52.218;9.882;2023-09-19T11:04:24;100227.97;;;20.61;59.56
43770;BME280;6597;52.218;9.882;2023-09-19T11:07:05;100234.78;;;20.75;58.28
43770;BME280;6597;52.218;9.882;2023-09-19T11:09:45;100222.56;;;20.72;58.05
43770;BME280;6597;52.218;9.882;2023-09-19T11:12:12;100224.25;;;20.73;56.63
43770;BME280;6597;52.218;9.882;2023-09-19T11:15:02;100222.69;;;20.71;53.93
43770;BME280;6597;52.218;9.882;2023-09-19T11:17:33;100216.88;;;20.56;55.67
43770;BME280;6597;52.218;9.882;2023-09-19T11:20:31;100224.50;;;20.70;57.14
43770;BME280;6597;52.218;9.882;2023-09-19T11:23:18;100207.81;;;20.68;56.40
43770;BME280;6597;52.218;9.882;2023-09-19T11:25:48;100220.47;;;20.76;56.43
43770;BME280;6597;52.218;9.882;2023-09-19T11:28:30;100227.13;;;20.81;56.98
43770;BME280;6597;52.218;9.882;2023-09-19T11:30:57;100215.94;;;20.88;55.26
43770;BME280;6597;52.218;9.882;2023-09-19T11:33:25;100211.28;;;20.90;56.33
43770;BME280;6597;52.218;9.882;2023-09-19T11:36:02;100205.72;;;21.02;57.91
43770;BME280;6597;52.218;9.882;2023-09-19T11:38:59;100198.22;;;21.17;56.75
43770;BME280;6597;52.218;9.882;2023-09-19T11:41:38;100212.00;;;21.22;55.53
43770;BME280;6597;52.218;9.882;2023-09-19T11:44:36;100207.50;;;21.23;56.20
43770;BME280;6597;52.218;9.882;2023-09-19T11:47:05;100211.75;;;21.25;54.55
43770;BME280;6597;52.218;9.882;2023-09-19T11:49:32;100208.44;;;21.12;53.73
43770;BME280;6597;52.218;9.882;2023-09-19T11:52:01;100205.13;;;20.89;54.12
43770;BME280;6597;52.218;9.882;2023-09-19T11:54:31;100205.88;;;20.80;53.95
43770;BME280;6597;52.218;9.882;2023-09-19T11:56:59;100211.66;;;20.55;54.15
43770;BME280;6597;52.218;9.882;2023-09-19T11:59:27;100204.81;;;20.41;55.92
43770;BME280;6597;52.218;9.882;2023-09-19T12:01:55;100214.09;;;20.26;55.90
43770;BME280;6597;52.218;9.882;2023-09-19T12:04:36;100207.13;;;20.34;57.29
43770;BME280;6597;52.218;9.882;2023-09-19T12:07:06;100210.16;;;20.41;57.46
43770;BME280;6597;52.218;9.882;2023-09-19T12:09:39;100202.47;;;20.68;56.05
43770;BME280;6597;52.218;9.882;2023-09-19T12:12:07;100205.88;;;21.01;55.97
43770;BME280;6597;52.218;9.882;2023-09-19T12:14:34;100200.53;;;21.31;54.92
43770;BME280;6597;52.218;9.882;2023-09-19T12:17:01;100207.00;;;21.38;51.83
43770;BME280;6597;52.218;9.882;2023-09-19T12:19:28;100199.84;;;21.08;52.47
43770;BME280;6597;52.218;9.882;2023-09-19T12:21:59;100204.81;;;20.83;54.38
43770;BME280;6597;52.218;9.882;2023-09-19T12:24:31;100213.09;;;20.59;56.47
43770;BME280;6597;52.218;9.882;2023-09-19T12:29:30;100205.97;;;20.27;55.93
43770;BME280;6597;52.218;9.882;2023-09-19T12:31:58;100213.13;;;20.27;57.37
43770;BME280;6597;52.218;9.882;2023-09-19T12:34:30;100214.63;;;20.08;57.26
43770;BME280;6597;52.218;9.882;2023-09-19T12:37:07;100206.06;;;20.05;58.46
43770;BME280;6597;52.218;9.882;2023-09-19T12:39:42;100211.31;;;19.95;55.12
43770;BME280;6597;52.218;9.882;2023-09-19T12:42:12;100206.03;;;19.84;54.95
43770;BME280;6597;52.218;9.882;2023-09-19T12:44:41;100213.53;;;19.79;57.23
43770;BME280;6597;52.218;9.882;2023-09-19T12:47:10;100208.19;;;19.79;57.43
43770;BME280;6597;52.218;9.882;2023-09-19T12:50:08;100202.41;;;19.74;58.27
43770;BME280;6597;52.218;9.882;2023-09-19T12:52:40;100212.69;;;19.78;58.49
43770;BME280;6597;52.218;9.882;2023-09-19T12:55:18;100213.91;;;19.74;59.46
43770;BME280;6597;52.218;9.882;2023-09-19T12:58:08;100218.19;;;19.66;57.33
43770;BME280;6597;52.218;9.882;2023-09-19T13:00:37;100213.69;;;19.66;58.75
43770;BME280;6597;52.218;9.882;2023-09-19T13:03:12;100208.63;;;19.63;58.20
43770;BME280;6597;52.218;9.882;2023-09-19T13:05:47;100199.91;;;19.61;57.83
43770;BME280;6597;52.218;9.882;2023-09-19T13:08:18;100201.72;;;19.61;56.37
43770;BME280;6597;52.218;9.882;2023-09-19T13:11:11;100197.47;;;19.69;57.39
43770;BME280;6597;52.218;9.882;2023-09-19T13:13:40;100194.88;;;19.79;56.70
43770;BME280;6597;52.218;9.882;2023-09-19T13:16:10;100183.25;;;19.80;56.97
43770;BME280;6597;52.218;9.882;2023-09-19T13:18:44;100187.75;;;19.79;55.79